sensor_id;sensor_type;location;lat;lon;timestamp;pressure;altitude;pressure_sealevel;temperature;humidity
28000;BME280;15328;50.860;10.562;2023-02-11T00:01:32;98089.56;;;3.50;61.08
28000;BME280;15328;50.860;10.562;2023-02-11T00:06:34;98088.69;;;3.70;61.57
28000;BME280;15328;50.860;10.562;2023-02-11T00:11:43;98072.25;;;3.88;60.85
28000;BME280;15328;50.860;10.562;2023-02-11T00:16:47;98051.44;;;3.94;61.23
28000;BME280;15328;50.860;10.562;2023-02-11T00:21:47;98031.47;;;3.82;61.14
28000;BME280;15328;50.860;10.562;2023-02-11T00:26:47;98022.06;;;3.89;60.65
28000;BME280;15328;50.860;10.562;2023-02-11T00:31:48;98021.38;;;4.07;60.69
28000;BME280;15328;50.860;10.562;2023-02-11T00:36:48;98030.78;;;4.09;59.93
28000;BME280;15328;50.860;10.562;2023-02-11T00:41:51;98012.22;;;4.11;59.47
28000;BME280;15328;50.860;10.562;2023-02-11T00:46:52;97999.19;;;3.99;58.83
28000;BME280;15328;50.860;10.562;2023-02-11T00:51:52;97990.72;;;3.77;59.19
28000;BME280;15328;50.860;10.562;2023-02-11T00:56:56;97979.19;;;3.49;59.78
28000;BME280;15328;50.860;10.562;2023-02-11T01:01:56;97963.75;;;3.05;60.73
28000;BME280;15328;50.860;10.562;2023-02-11T01:06:56;97955.25;;;2.92;61.12
28000;BME280;15328;50.860;10.562;2023-02-11T01:11:57;97974.00;;;2.47;62.76
28000;BME280;15328;50.860;10.562;2023-02-11T01:16:57;97963.06;;;2.22;63.38
28000;BME280;15328;50.860;10.562;2023-02-11T01:21:58;97952.75;;;2.09;64.75
28000;BME280;15328;50.860;10.562;2023-02-11T01:26:58;97961.91;;;2.35;62.91
28000;BME280;15328;50.860;10.562;2023-02-11T01:31:59;97964.66;;;2.34;63.61
28000;BME280;15328;50.860;10.562;2023-02-11T01:36:59;97959.72;;;2.40;62.74
28000;BME280;15328;50.860;10.562;2023-02-11T01:42:00;97954.66;;;2.28;64.04
28000;BME280;15328;50.860;10.562;2023-02-11T01:47:01;97969.59;;;2.27;63.98
28000;BME280;15328;50.860;10.562;2023-02-11T01:57:06;97979.06;;;2.39;64.45
28000;BME280;15328;50.860;10.562;2023-02-11T02:08:31;97971.63;;;2.44;63.98
28000;BME280;15328;50.860;10.562;2023-02-11T02:13:34;97966.84;;;2.50;65.18
28000;BME280;15328;50.860;10.562;2023-02-11T02:18:41;97964.06;;;2.51;65.71
28000;BME280;15328;50.860;10.562;2023-02-11T02:23:55;97927.06;;;2.64;66.98
28000;BME280;15328;50.860;10.562;2023-02-11T02:34:33;97898.72;;;3.17;67.62
28000;BME280;15328;50.860;10.562;2023-02-11T02:39:36;97871.47;;;3.47;66.78
28000;BME280;15328;50.860;10.562;2023-02-11T02:44:37;97881.19;;;3.56;66.90
28000;BME280;15328;50.860;10.562;2023-02-11T02:49:38;97860.38;;;3.72;66.45
28000;BME280;15328;50.860;10.562;2023-02-11T03:10:41;97817.59;;;3.51;64.29
28000;BME280;15328;50.860;10.562;2023-02-11T03:15:45;97819.53;;;3.59;64.37
28000;BME280;15328;50.860;10.562;2023-02-11T03:20:49;97790.72;;;3.48;65.25
28000;BME280;15328;50.860;10.562;2023-02-11T03:25:57;97820.38;;;3.50;64.94
28000;BME280;15328;50.860;10.562;2023-02-11T03:36:13;97823.56;;;3.34;65.70
28000;BME280;15328;50.860;10.562;2023-02-11T03:41:19;97813.59;;;3.57;64.56
28000;BME280;15328;50.860;10.562;2023-02-11T03:46:26;97815.78;;;3.52;64.66
28000;BME280;15328;50.860;10.562;2023-02-11T03:51:31;97818.16;;;3.64;64.39
28000;BME280;15328;50.860;10.562;2023-02-11T03:56:40;97801.53;;;3.64;64.25
28000;BME280;15328;50.860;10.562;2023-02-11T04:01:41;97784.38;;;3.60;64.18
28000;BME280;15328;50.860;10.562;2023-02-11T04:06:42;97801.53;;;3.64;64.27
28000;BME280;15328;50.860;10.562;2023-02-11T04:11:42;97768.81;;;3.66;63.50
28000;BME280;15328;50.860;10.562;2023-02-11T04:16:42;97793.78;;;3.62;63.61
28000;BME280;15328;50.860;10.562;2023-02-11T04:21:43;97814.13;;;3.70;63.58
28000;BME280;15328;50.860;10.562;2023-02-11T04:26:43;97819.78;;;3.56;64.32
28000;BME280;15328;50.860;10.562;2023-02-11T04:31:44;97791.97;;;3.53;64.60
28000;BME280;15328;50.860;10.562;2023-02-11T04:36:44;97789.94;;;3.37;65.59
28000;BME280;15328;50.860;10.562;2023-02-11T04:41:45;97798.63;;;3.57;64.18
28000;BME280;15328;50.860;10.562;2023-02-11T04:46:46;97791.31;;;3.22;65.64
28000;BME280;15328;50.860;10.562;2023-02-11T04:51:46;97800.56;;;2.97;66.59
28000;BME280;15328;50.860;10.562;2023-02-11T04:56:47;97801.13;;;3.01;65.72
28000;BME280;15328;50.860;10.562;2023-02-11T05:01:48;97783.00;;;3.07;65.67
28000;BME280;15328;50.860;10.562;2023-02-11T05:06:49;97773.75;;;3.03;66.35
28000;BME280;15328;50.860;10.562;2023-02-11T05:11:49;97766.13;;;3.10;65.83
28000;BME280;15328;50.860;10.562;2023-02-11T05:16:50;97776.09;;;3.06;66.26
28000;BME280;15328;50.860;10.562;2023-02-11T05:21:50;97799.63;;;3.37;67.14
28000;BME280;15328;50.860;10.562;2023-02-11T05:26:50;97798.22;;;3.62;65.99
28000;BME280;15328;50.860;10.562;2023-02-11T05:31:51;97835.56;;;3.85;65.13
28000;BME280;15328;50.860;10.562;2023-02-11T05:36:51;97849.41;;;3.96;65.03
28000;BME280;15328;50.860;10.562;2023-02-11T05:41:51;97828.31;;;3.96;64.79
28000;BME280;15328;50.860;10.562;2023-02-11T05:46:52;97850.19;;;4.07;64.69
28000;BME280;15328;50.860;10.562;2023-02-11T05:51:52;97834.94;;;4.10;64.54
28000;BME280;15328;50.860;10.562;2023-02-11T05:56:52;97842.72;;;4.12;64.75
28000;BME280;15328;50.860;10.562;2023-02-11T06:01:53;97820.44;;;4.33;63.41
28000;BME280;15328;50.860;10.562;2023-02-11T06:06:53;97821.16;;;4.26;64.25
28000;BME280;15328;50.860;10.562;2023-02-11T06:11:53;97828.78;;;4.29;64.53
28000;BME280;15328;50.860;10.562;2023-02-11T06:16:54;97826.13;;;4.29;64.11
28000;BME280;15328;50.860;10.562;2023-02-11T06:21:55;97835.75;;;4.20;62.77
28000;BME280;15328;50.860;10.562;2023-02-11T06:26:55;97840.91;;;4.02;63.39
28000;BME280;15328;50.860;10.562;2023-02-11T06:31:56;97856.22;;;3.89;64.13
28000;BME280;15328;50.860;10.562;2023-02-11T06:36:59;97844.38;;;4.03;63.54
28000;BME280;15328;50.860;10.562;2023-02-11T06:41:59;97862.66;;;4.14;63.75
28000;BME280;15328;50.860;10.562;2023-02-11T06:47:00;97868.53;;;3.89;65.35
28000;BME280;15328;50.860;10.562;2023-02-11T06:52:03;97856.47;;;3.96;65.98
28000;BME280;15328;50.860;10.562;2023-02-11T06:57:03;97853.25;;;4.02;65.74
28000;BME280;15328;50.860;10.562;2023-02-11T07:02:04;97866.16;;;3.95;66.69
28000;BME280;15328;50.860;10.562;2023-02-11T07:07:04;97871.53;;;4.03;66.07
28000;BME280;15328;50.860;10.562;2023-02-11T07:12:05;97866.97;;;4.15;66.01
28000;BME280;15328;50.860;10.562;2023-02-11T07:17:08;97872.50;;;4.12;66.46
28000;BME280;15328;50.860;10.562;2023-02-11T07:22:08;97876.53;;;4.16;66.28
28000;BME280;15328;50.860;10.562;2023-02-11T07:27:09;97876.53;;;4.16;67.07
28000;BME280;15328;50.860;10.562;2023-02-11T07:32:09;97889.91;;;4.42;65.84
28000;BME280;15328;50.860;10.562;2023-02-11T07:37:09;97887.06;;;4.53;64.91
28000;BME280;15328;50.860;10.562;2023-02-11T07:42:10;97888.38;;;4.30;66.87
28000;BME280;15328;50.860;10.562;2023-02-11T07:47:10;97903.41;;;4.20;67.70
28000;BME280;15328;50.860;10.562;2023-02-11T07:52:11;97926.66;;;4.44;66.39
28000;BME280;15328;50.860;10.562;2023-02-11T07:57:11;97926.50;;;4.35;66.68
28000;BME280;15328;50.860;10.562;2023-02-11T08:02:11;97932.19;;;4.31;67.92
28000;BME280;15328;50.860;10.562;2023-02-11T08:07:16;97932.47;;;4.38;67.29
28000;BME280;15328;50.860;10.562;2023-02-11T08:12:16;97920.69;;;4.32;67.78
28000;BME280;15328;50.860;10.562;2023-02-11T08:17:17;97913.19;;;4.47;67.48
28000;BME280;15328;50.860;10.562;2023-02-11T08:22:17;97911.19;;;4.58;67.61
28000;BME280;15328;50.860;10.562;2023-02-11T08:27:17;97916.38;;;4.78;66.78
28000;BME280;15328;50.860;10.562;2023-02-11T08:32:18;97917.81;;;4.72;68.64
28000;BME280;15328;50.860;10.562;2023-02-11T08:37:19;97928.06;;;5.03;67.38
28000;BME280;15328;50.860;10.562;2023-02-11T08:42:19;97925.28;;;5.04;67.39
28000;BME280;15328;50.860;10.562;2023-02-11T08:47:19;97942.16;;;5.11;67.14
28000;BME280;15328;50.860;10.562;2023-02-11T08:52:20;97933.72;;;5.08;66.84
28000;BME280;15328;50.860;10.562;2023-02-11T08:57:20;97936.56;;;5.24;66.57
28000;BME280;15328;50.860;10.562;2023-02-11T09:02:20;97925.56;;;5.28;66.66
28000;BME280;15328;50.860;10.562;2023-02-11T09:07:21;97926.28;;;5.48;65.95
28000;BME280;15328;50.860;10.562;2023-02-11T09:12:21;97928.13;;;5.74;65.21
28000;BME280;15328;50.860;10.562;2023-02-11T09:17:21;97907.47;;;5.87;64.77
28000;BME280;15328;50.860;10.562;2023-02-11T09:22:22;97919.47;;;5.99;64.59
28000;BME280;15328;50.860;10.562;2023-02-11T09:27:22;97917.31;;;5.95;64.53
28000;BME280;15328;50.860;10.562;2023-02-11T09:32:22;97920.47;;;5.98;64.25
28000;BME280;15328;50.860;10.562;2023-02-11T09:37:23;97933.88;;;6.23;63.66
28000;BME280;15328;50.860;10.562;2023-02-11T09:42:45;97934.31;;;6.36;63.52
28000;BME280;15328;50.860;10.562;2023-02-11T09:48:14;97933.25;;;6.55;62.81
28000;BME280;15328;50.860;10.562;2023-02-11T09:53:26;97935.53;;;6.75;62.00
28000;BME280;15328;50.860;10.562;2023-02-11T09:58:33;97928.81;;;6.89;61.90
28000;BME280;15328;50.860;10.562;2023-02-11T10:04:00;97927.06;;;7.06;62.30
28000;BME280;15328;50.860;10.562;2023-02-11T10:09:06;97938.91;;;7.28;61.84
28000;BME280;15328;50.860;10.562;2023-02-11T10:24:41;97939.47;;;7.56;60.46
28000;BME280;15328;50.860;10.562;2023-02-11T10:29:52;97944.31;;;7.77;60.06
28000;BME280;15328;50.860;10.562;2023-02-11T10:34:58;97972.13;;;7.89;59.76
28000;BME280;15328;50.860;10.562;2023-02-11T10:40:00;97948.13;;;7.82;58.94
28000;BME280;15328;50.860;10.562;2023-02-11T10:45:03;97974.44;;;7.75;59.28
28000;BME280;15328;50.860;10.562;2023-02-11T10:50:18;97978.97;;;7.99;58.64
28000;BME280;15328;50.860;10.562;2023-02-11T10:55:23;97978.28;;;8.14;58.36
28000;BME280;15328;50.860;10.562;2023-02-11T11:05:49;97957.91;;;8.63;57.18
28000;BME280;15328;50.860;10.562;2023-02-11T11:11:04;97953.66;;;9.01;55.98
28000;BME280;15328;50.860;10.562;2023-02-11T11:16:34;97952.47;;;9.51;55.25
28000;BME280;15328;50.860;10.562;2023-02-11T11:21:42;97938.63;;;10.09;53.49
28000;BME280;15328;50.860;10.562;2023-02-11T11:26:47;97941.91;;;10.57;51.97
28000;BME280;15328;50.860;10.562;2023-02-11T11:32:00;97932.84;;;11.25;51.14
28000;BME280;15328;50.860;10.562;2023-02-11T11:37:18;97949.34;;;12.29;48.74
28000;BME280;15328;50.860;10.562;2023-02-11T11:42:26;97957.31;;;12.72;45.69
28000;BME280;15328;50.860;10.562;2023-02-11T11:47:47;97957.38;;;12.07;43.85
28000;BME280;15328;50.860;10.562;2023-02-11T11:53:10;97956.41;;;11.94;44.53
28000;BME280;15328;50.860;10.562;2023-02-11T11:58:19;97973.41;;;11.93;45.19
28000;BME280;15328;50.860;10.562;2023-02-11T12:09:16;97977.59;;;11.66;45.49
28000;BME280;15328;50.860;10.562;2023-02-11T12:14:23;97968.41;;;12.47;44.04
28000;BME280;15328;50.860;10.562;2023-02-11T12:30:21;97979.19;;;11.96;44.78
28000;BME280;15328;50.860;10.562;2023-02-11T12:35:40;97979.94;;;11.75;44.97
28000;BME280;15328;50.860;10.562;2023-02-11T12:40:49;97988.19;;;11.59;44.93
28000;BME280;15328;50.860;10.562;2023-02-11T13:01:39;97959.72;;;10.71;47.21
28000;BME280;15328;50.860;10.562;2023-02-11T13:06:45;97963.81;;;10.44;48.08
28000;BME280;15328;50.860;10.562;2023-02-11T13:11:50;97966.63;;;9.97;49.66
28000;BME280;15328;50.860;10.562;2023-02-11T13:16:54;97955.88;;;9.68;50.48
28000;BME280;15328;50.860;10.562;2023-02-11T13:22:23;97950.44;;;9.53;50.64
28000;BME280;15328;50.860;10.562;2023-02-11T13:38:03;97951.66;;;9.03;53.21
28000;BME280;15328;50.860;10.562;2023-02-11T13:43:10;97945.03;;;8.99;53.46
28000;BME280;15328;50.860;10.562;2023-02-11T13:48:30;97949.38;;;8.92;54.19
28000;BME280;15328;50.860;10.562;2023-02-11T13:53:55;97953.41;;;8.80;54.79
28000;BME280;15328;50.860;10.562;2023-02-11T13:58:58;97966.69;;;8.72;55.14
28000;BME280;15328;50.860;10.562;2023-02-11T14:04:23;97982.13;;;8.60;55.73
28000;BME280;15328;50.860;10.562;2023-02-11T14:09:42;97964.56;;;8.51;56.44
28000;BME280;15328;50.860;10.562;2023-02-11T14:15:00;97973.66;;;8.32;57.08
28000;BME280;15328;50.860;10.562;2023-02-11T14:20:03;97966.03;;;8.21;57.66
28000;BME280;15328;50.860;10.562;2023-02-11T14:25:24;97969.38;;;8.23;58.13
28000;BME280;15328;50.860;10.562;2023-02-11T14:30:30;97948.78;;;8.17;58.43
28000;BME280;15328;50.860;10.562;2023-02-11T14:41:28;97962.56;;;7.96;58.70
28000;BME280;15328;50.860;10.562;2023-02-11T14:46:31;97956.06;;;7.90;58.86
28000;BME280;15328;50.860;10.562;2023-02-11T14:51:37;97960.72;;;7.80;59.48
28000;BME280;15328;50.860;10.562;2023-02-11T14:56:40;97978.03;;;7.66;60.00
28000;BME280;15328;50.860;10.562;2023-02-11T15:01:45;97985.53;;;7.71;59.78
28000;BME280;15328;50.860;10.562;2023-02-11T15:06:48;97982.72;;;7.72;59.42
28000;BME280;15328;50.860;10.562;2023-02-11T15:11:51;97976.53;;;7.56;60.39
28000;BME280;15328;50.860;10.562;2023-02-11T15:16:54;97978.38;;;7.63;60.17
28000;BME280;15328;50.860;10.562;2023-02-11T15:21:56;97981.84;;;7.64;60.52
28000;BME280;15328;50.860;10.562;2023-02-11T15:27:02;97992.00;;;7.68;60.46
28000;BME280;15328;50.860;10.562;2023-02-11T15:32:17;97996.09;;;7.63;61.18
28000;BME280;15328;50.860;10.562;2023-02-11T15:37:21;97996.47;;;7.68;61.20
28000;BME280;15328;50.860;10.562;2023-02-11T15:42:25;97998.06;;;7.61;62.41
28000;BME280;15328;50.860;10.562;2023-02-11T15:47:26;98006.53;;;7.64;62.41
28000;BME280;15328;50.860;10.562;2023-02-11T15:52:27;98007.91;;;7.77;62.43
28000;BME280;15328;50.860;10.562;2023-02-11T15:57:28;98011.69;;;7.74;62.54
28000;BME280;15328;50.860;10.562;2023-02-11T16:02:32;98010.03;;;7.73;62.60
28000;BME280;15328;50.860;10.562;2023-02-11T16:12:39;98032.56;;;7.77;62.34
28000;BME280;15328;50.860;10.562;2023-02-11T16:17:42;98047.94;;;7.73;62.77
28000;BME280;15328;50.860;10.562;2023-02-11T16:22:44;98046.63;;;7.69;62.81
28000;BME280;15328;50.860;10.562;2023-02-11T16:27:52;98050.56;;;7.65;62.83
28000;BME280;15328;50.860;10.562;2023-02-11T16:32:53;98051.72;;;7.63;63.42
28000;BME280;15328;50.860;10.562;2023-02-11T16:37:54;98065.78;;;7.63;62.86
28000;BME280;15328;50.860;10.562;2023-02-11T16:42:54;98073.22;;;7.60;63.07
28000;BME280;15328;50.860;10.562;2023-02-11T16:47:55;98070.88;;;7.49;62.89
28000;BME280;15328;50.860;10.562;2023-02-11T16:52:55;98075.44;;;7.38;63.42
28000;BME280;15328;50.860;10.562;2023-02-11T16:57:55;98072.44;;;7.33;63.00
28000;BME280;15328;50.860;10.562;2023-02-11T17:02:56;98074.84;;;7.19;63.57
28000;BME280;15328;50.860;10.562;2023-02-11T17:07:56;98087.09;;;7.20;63.46
28000;BME280;15328;50.860;10.562;2023-02-11T17:12:57;98095.53;;;7.23;63.39
28000;BME280;15328;50.860;10.562;2023-02-11T17:17:57;98102.47;;;7.16;63.43
28000;BME280;15328;50.860;10.562;2023-02-11T17:22:58;98103.97;;;7.19;63.47
28000;BME280;15328;50.860;10.562;2023-02-11T17:27:58;98094.38;;;7.18;63.48
28000;BME280;15328;50.860;10.562;2023-02-11T17:32:59;98093.94;;;7.04;64.21
28000;BME280;15328;50.860;10.562;2023-02-11T17:37:59;98108.91;;;7.13;63.59
28000;BME280;15328;50.860;10.562;2023-02-11T17:43:00;98099.28;;;7.12;63.78
28000;BME280;15328;50.860;10.562;2023-02-11T17:48:00;98103.81;;;7.20;63.70
28000;BME280;15328;50.860;10.562;2023-02-11T17:53:01;98108.09;;;7.21;64.13
28000;BME280;15328;50.860;10.562;2023-02-11T17:58:01;98110.09;;;7.19;64.32
28000;BME280;15328;50.860;10.562;2023-02-11T18:03:02;98110.75;;;7.21;64.38
28000;BME280;15328;50.860;10.562;2023-02-11T18:08:04;98107.75;;;7.16;64.73
28000;BME280;15328;50.860;10.562;2023-02-11T18:13:05;98114.72;;;7.17;64.59
28000;BME280;15328;50.860;10.562;2023-02-11T18:18:05;98127.44;;;7.13;64.90
28000;BME280;15328;50.860;10.562;2023-02-11T18:23:05;98117.81;;;7.12;65.39
28000;BME280;15328;50.860;10.562;2023-02-11T18:28:06;98130.59;;;7.17;65.29
28000;BME280;15328;50.860;10.562;2023-02-11T18:33:06;98132.75;;;7.22;65.68
28000;BME280;15328;50.860;10.562;2023-02-11T18:38:11;98134.78;;;7.28;65.60
28000;BME280;15328;50.860;10.562;2023-02-11T18:43:12;98137.28;;;7.29;65.53
28000;BME280;15328;50.860;10.562;2023-02-11T18:48:13;98131.16;;;7.29;66.10
28000;BME280;15328;50.860;10.562;2023-02-11T18:53:14;98142.25;;;7.32;65.83
28000;BME280;15328;50.860;10.562;2023-02-11T18:58:17;98156.31;;;7.33;66.08
28000;BME280;15328;50.860;10.562;2023-02-11T19:03:17;98143.03;;;7.25;66.16
28000;BME280;15328;50.860;10.562;2023-02-11T19:08:18;98153.47;;;7.26;66.03
28000;BME280;15328;50.860;10.562;2023-02-11T19:13:18;98162.59;;;7.32;65.85
28000;BME280;15328;50.860;10.562;2023-02-11T19:18:18;98160.09;;;7.30;66.29
28000;BME280;15328;50.860;10.562;2023-02-11T19:23:19;98171.38;;;7.32;66.54
28000;BME280;15328;50.860;10.562;2023-02-11T19:28:19;98143.41;;;7.30;66.10
28000;BME280;15328;50.860;10.562;2023-02-11T19:33:19;98135.44;;;7.30;66.70
28000;BME280;15328;50.860;10.562;2023-02-11T19:38:20;98151.50;;;7.28;66.37
28000;BME280;15328;50.860;10.562;2023-02-11T19:43:20;98153.50;;;7.34;66.56
28000;BME280;15328;50.860;10.562;2023-02-11T19:48:22;98165.75;;;7.35;66.65
28000;BME280;15328;50.860;10.562;2023-02-11T19:53:23;98178.16;;;7.35;66.80
28000;BME280;15328;50.860;10.562;2023-02-11T19:58:24;98187.72;;;7.28;67.27
28000;BME280;15328;50.860;10.562;2023-02-11T20:03:24;98189.69;;;7.26;67.54
28000;BME280;15328;50.860;10.562;2023-02-11T20:08:24;98200.28;;;7.26;67.36
28000;BME280;15328;50.860;10.562;2023-02-11T20:13:25;98206.63;;;7.33;66.70
28000;BME280;15328;50.860;10.562;2023-02-11T20:18:25;98214.03;;;7.29;67.32
28000;BME280;15328;50.860;10.562;2023-02-11T20:23:27;98230.22;;;7.26;67.23
28000;BME280;15328;50.860;10.562;2023-02-11T20:28:28;98236.22;;;7.28;67.56
28000;BME280;15328;50.860;10.562;2023-02-11T20:33:29;98216.31;;;7.24;68.02
28000;BME280;15328;50.860;10.562;2023-02-11T20:38:30;98225.78;;;7.27;68.10
28000;BME280;15328;50.860;10.562;2023-02-11T20:43:31;98218.66;;;7.27;68.23
28000;BME280;15328;50.860;10.562;2023-02-11T20:48:32;98218.59;;;7.19;68.73
28000;BME280;15328;50.860;10.562;2023-02-11T20:53:33;98227.59;;;7.26;68.24
28000;BME280;15328;50.860;10.562;2023-02-11T20:58:34;98219.81;;;7.25;68.62
28000;BME280;15328;50.860;10.562;2023-02-11T21:03:35;98221.81;;;7.31;68.74
28000;BME280;15328;50.860;10.562;2023-02-11T21:08:35;98213.88;;;7.31;69.17
28000;BME280;15328;50.860;10.562;2023-02-11T21:13:37;98213.41;;;7.35;68.94
28000;BME280;15328;50.860;10.562;2023-02-11T21:18:38;98223.69;;;7.38;68.81
28000;BME280;15328;50.860;10.562;2023-02-11T21:23:38;98225.00;;;7.34;69.59
28000;BME280;15328;50.860;10.562;2023-02-11T21:28:39;98235.13;;;7.39;69.33
28000;BME280;15328;50.860;10.562;2023-02-11T21:33:39;98241.25;;;7.39;69.11
28000;BME280;15328;50.860;10.562;2023-02-11T21:38:40;98256.59;;;7.36;68.99
28000;BME280;15328;50.860;10.562;2023-02-11T21:43:41;98250.06;;;7.40;69.42
28000;BME280;15328;50.860;10.562;2023-02-11T21:48:41;98261.16;;;7.43;68.94
28000;BME280;15328;50.860;10.562;2023-02-11T21:53:42;98270.25;;;7.41;68.77
28000;BME280;15328;50.860;10.562;2023-02-11T21:58:44;98278.03;;;7.42;68.85
28000;BME280;15328;50.860;10.562;2023-02-11T22:03:44;98283.59;;;7.39;68.71
28000;BME280;15328;50.860;10.562;2023-02-11T22:08:45;98298.53;;;7.40;68.61
28000;BME280;15328;50.860;10.562;2023-02-11T22:13:46;98289.47;;;7.43;69.02
28000;BME280;15328;50.860;10.562;2023-02-11T22:18:46;98292.94;;;7.43;68.69
28000;BME280;15328;50.860;10.562;2023-02-11T22:23:47;98306.03;;;7.45;68.64
28000;BME280;15328;50.860;10.562;2023-02-11T22:28:49;98296.78;;;7.49;68.75
28000;BME280;15328;50.860;10.562;2023-02-11T22:33:50;98305.03;;;7.46;68.88
28000;BME280;15328;50.860;10.562;2023-02-11T22:38:51;98289.97;;;7.47;68.65
28000;BME280;15328;50.860;10.562;2023-02-11T22:43:52;98309.19;;;7.49;68.80
28000;BME280;15328;50.860;10.562;2023-02-11T22:48:52;98312.00;;;7.47;69.03
28000;BME280;15328;50.860;10.562;2023-02-11T22:53:54;98308.06;;;7.51;68.66
28000;BME280;15328;50.860;10.562;2023-02-11T22:58:58;98319.94;;;7.47;68.93
28000;BME280;15328;50.860;10.562;2023-02-11T23:04:00;98313.19;;;7.53;68.92
28000;BME280;15328;50.860;10.562;2023-02-11T23:09:06;98312.81;;;7.48;68.88
28000;BME280;15328;50.860;10.562;2023-02-11T23:14:07;98322.75;;;7.46;68.84
28000;BME280;15328;50.860;10.562;2023-02-11T23:19:10;98319.09;;;7.47;68.75
28000;BME280;15328;50.860;10.562;2023-02-11T23:24:13;98332.19;;;7.48;69.07
28000;BME280;15328;50.860;10.562;2023-02-11T23:29:13;98342.09;;;7.46;69.29
28000;BME280;15328;50.860;10.562;2023-02-11T23:34:14;98334.84;;;7.48;68.89
28000;BME280;15328;50.860;10.562;2023-02-11T23:39:16;98340.13;;;7.48;68.96
28000;BME280;15328;50.860;10.562;2023-02-11T23:44:17;98339.38;;;7.56;68.66
28000;BME280;15328;50.860;10.562;2023-02-11T23:49:17;98337.94;;;7.43;69.41
28000;BME280;15328;50.860;10.562;2023-02-11T23:54:18;98346.56;;;7.46;69.35
28000;BME280;15328;50.860;10.562;2023-02-11T23:59:18;98347.94;;;7.50;68.72
